EHVK

Volkel Air Base Airport

Uden, The Netherlands
METAR EHVK 251425Z AUTO 15004KT 060V210 9999 OVC320 16/04 Q1038 BLU VRB02KT 9999 SCT040
Observed Flight Rules
Sep-25 @ 14:25 UTC (39 minutes ago) Visual Flight Rules
Wind Visibility Clouds
150° at 4 knots 10,000+ meters
  • Overcast at 32,000' AGL
  • Scattered at 4,000' AGL
Temperatures Readings
Current 16°C / 61°F
Dewpoint 4°C / 39°F
Humidity 45%
Altimeter 30.65" Hg
Pressure 1038 hPa
Elevation 21
METAR EHVK 251425Z AUTO 15004KT 060V210 9999 OVC320 16/04 Q1038 BLU VRB02KT 9999 SCT040
Observed Flight Rules
Sep-25 @ 14:25 UTC
(39 minutes ago)
VFR
Wind Visibility
150° at 4 knots 10,000+ meters
Clouds
  • Overcast at 32,000' AGL
  • Scattered at 4,000' AGL
Temperature Dewpoint
16°C / 61°F 4°C / 39°F
Humidity Altimeter Pressure
45% 30.65" Hg 1038 hPa